createdAt,value
2019-05-14T00:02:06.869Z,5.02
2019-05-14T00:07:07.155Z,4.88
2019-05-14T00:12:06.772Z,4.61
2019-05-14T00:16:07.382Z,4.75
2019-05-14T00:21:06.671Z,4.63
2019-05-14T00:26:06.684Z,4.52
2019-05-14T00:31:06.510Z,4.43
2019-05-14T00:36:06.599Z,4.13
2019-05-14T00:41:07.186Z,3.98
2019-05-14T00:45:08.529Z,4.14
2019-05-14T00:46:07.069Z,4.14
2019-05-14T00:50:07.814Z,4.24
2019-05-14T00:55:06.974Z,4.07
2019-05-14T01:00:11.481Z,4.07
2019-05-14T01:05:12.157Z,3.92
2019-05-14T01:10:08.134Z,3.73
2019-05-14T01:15:14.651Z,3.58
2019-05-14T01:20:06.957Z,3.68
2019-05-14T01:24:07.605Z,3.43
2019-05-14T01:29:07.875Z,3.4
2019-05-14T01:34:07.714Z,3.06
2019-05-14T01:39:07.277Z,2.99
2019-05-14T01:44:07.500Z,2.83
2019-05-14T01:49:07.543Z,2.96
2019-05-14T01:54:07.772Z,3.08
2019-05-14T01:58:06.457Z,3.02
2019-05-14T02:03:07.787Z,2.91
2019-05-14T02:08:07.038Z,2.59
2019-05-14T02:13:07.605Z,2.58
2019-05-14T02:18:07.641Z,2.64
2019-05-14T02:23:06.915Z,2.84
2019-05-14T02:28:07.102Z,2.91
2019-05-14T02:32:11.029Z,2.66
2019-05-14T02:37:09.710Z,2.83
2019-05-14T02:42:10.080Z,3.03
2019-05-14T02:47:10.307Z,2.89
2019-05-14T02:52:10.482Z,2.84
2019-05-14T02:57:10.892Z,2.69
2019-05-14T03:02:11.209Z,2.7
2019-05-14T03:06:09.887Z,2.68
2019-05-14T03:11:09.771Z,2.58
2019-05-14T03:16:30.717Z,2.41
2019-05-14T03:21:09.599Z,2.39
2019-05-14T03:26:10.034Z,2.37
2019-05-14T03:31:12.128Z,2.36
2019-05-14T03:36:17.570Z,2.41
2019-05-14T03:40:10.115Z,2.43
2019-05-14T03:45:09.380Z,2.49
2019-05-14T03:50:10.541Z,2.55
2019-05-14T03:55:10.508Z,2.5
2019-05-14T04:00:11.446Z,2.6
2019-05-14T04:05:09.885Z,2.88
2019-05-14T04:10:11.026Z,2.99
2019-05-14T04:15:10.199Z,3.39
2019-05-14T04:20:10.566Z,4.45
2019-05-14T04:24:10.454Z,5.3
2019-05-14T04:29:10.676Z,5.71
2019-05-14T04:34:11.633Z,5.99
2019-05-14T04:39:10.701Z,6.25
2019-05-14T04:44:10.763Z,6.43
2019-05-14T04:49:10.619Z,6.5
2019-05-14T04:54:10.654Z,6.84
2019-05-14T04:59:11.552Z,7.32
2019-05-14T05:04:10.134Z,7.73
2019-05-14T05:08:14.685Z,7.84
2019-05-14T05:13:09.479Z,8.06
2019-05-14T05:18:09.908Z,8.74
2019-05-14T05:23:08.889Z,8.67
2019-05-14T05:28:09.882Z,8.87
2019-05-14T05:32:09.056Z,8.19
2019-05-14T05:33:10.087Z,8.19
2019-05-14T05:37:09.041Z,7.79
2019-05-14T05:42:08.883Z,8.39
2019-05-14T05:47:10.153Z,8.86
2019-05-14T05:52:09.652Z,9.06
2019-05-14T05:57:09.807Z,9.1
2019-05-14T06:02:09.647Z,8.92
2019-05-14T06:06:14.272Z,10.59
2019-05-14T06:07:09.115Z,10.59
2019-05-14T06:11:09.171Z,11.25
2019-05-14T06:16:09.185Z,11.4
2019-05-14T06:21:08.923Z,10.53
2019-05-14T06:26:11.947Z,10.53
2019-05-14T06:31:10.494Z,11.34
2019-05-14T06:36:09.095Z,11.1
2019-05-14T06:41:08.838Z,12.51
2019-05-14T06:45:09.832Z,11.62
2019-05-14T06:46:09.254Z,11.62
2019-05-14T06:50:09.320Z,11.44
2019-05-14T06:55:09.722Z,10.57
2019-05-14T07:00:09.112Z,9.76
2019-05-14T07:05:09.045Z,10.3
2019-05-14T07:10:09.252Z,11.28
2019-05-14T07:15:10.110Z,11.79
2019-05-14T07:20:09.503Z,12.65
2019-05-14T07:24:09.014Z,13
2019-05-14T07:29:11.791Z,12.51
2019-05-14T07:34:09.143Z,11.87
2019-05-14T07:39:09.654Z,11.96
2019-05-14T07:44:09.033Z,11.87
2019-05-14T07:49:12.024Z,12.48
2019-05-14T07:54:08.621Z,12.26
2019-05-14T07:59:09.139Z,11.49
2019-05-14T08:03:08.484Z,11.13
2019-05-14T08:08:08.392Z,10.39
2019-05-14T08:13:08.840Z,10.19
2019-05-14T08:18:08.545Z,10.52
2019-05-14T08:23:09.265Z,11.16
2019-05-14T08:28:08.495Z,12.74
2019-05-14T08:33:09.264Z,11.97
2019-05-14T08:37:09.293Z,11.97
2019-05-14T08:42:09.608Z,13.44
2019-05-14T08:47:10.526Z,12.12
2019-05-14T08:52:09.911Z,11.73
2019-05-14T08:57:10.644Z,12.16
2019-05-14T09:02:10.937Z,14.27
2019-05-14T09:06:09.766Z,14.28
2019-05-14T09:11:10.577Z,14.86
2019-05-14T09:16:10.181Z,12.92
2019-05-14T09:21:09.743Z,13
2019-05-14T09:26:10.253Z,13.85
2019-05-14T09:31:09.523Z,12.7
2019-05-14T09:36:24.376Z,13.54
2019-05-14T09:40:09.387Z,14.35
2019-05-14T09:45:12.206Z,14.06
2019-05-14T09:50:23.742Z,14
2019-05-14T09:55:09.650Z,13.62
2019-05-14T10:00:10.133Z,14.55
2019-05-14T10:05:10.145Z,15.23
2019-05-14T10:09:09.332Z,12.7
2019-05-14T10:10:07.632Z,12.7
2019-05-14T10:14:08.739Z,12.43
2019-05-14T10:19:06.931Z,13.21
2019-05-14T10:24:09.919Z,13.92
2019-05-14T10:29:08.622Z,13.81
2019-05-14T10:34:09.113Z,13.1
2019-05-14T10:39:10.142Z,12.38
2019-05-14T10:43:09.567Z,12.71
2019-05-14T10:48:09.345Z,13.21
2019-05-14T10:53:09.529Z,13.19
2019-05-14T10:58:09.161Z,12.46
2019-05-14T11:03:07.351Z,12.35
2019-05-14T11:08:12.596Z,12.85
2019-05-14T11:12:09.450Z,13.98
2019-05-14T11:13:09.621Z,13.98
2019-05-14T11:17:12.157Z,13.61
2019-05-14T11:22:08.686Z,12.69
2019-05-14T11:27:06.839Z,13.08
2019-05-14T11:32:09.953Z,13.08
2019-05-14T11:37:08.980Z,13.46
2019-05-14T11:42:08.944Z,13.82
2019-05-14T11:46:09.813Z,13.61
2019-05-14T11:51:09.975Z,12.56
2019-05-14T11:56:09.758Z,11.49
2019-05-14T12:01:09.475Z,11.88
2019-05-14T12:06:10.102Z,12.45
2019-05-14T12:11:09.047Z,14.62
2019-05-14T12:16:08.974Z,14.37
2019-05-14T12:20:07.106Z,13.97
2019-05-14T12:25:09.294Z,14.13
2019-05-14T12:30:10.851Z,14.11
2019-05-14T12:35:09.675Z,13.44
2019-05-14T12:40:09.910Z,14.73
2019-05-14T12:44:09.746Z,14.66
2019-05-14T12:49:06.892Z,13.89
2019-05-14T12:54:09.702Z,13.61
2019-05-14T12:59:06.979Z,13.73
2019-05-14T13:04:08.884Z,13.56
2019-05-14T13:09:09.660Z,14.09
2019-05-14T13:14:06.931Z,15.58
2019-05-14T13:19:09.467Z,16.63
2019-05-14T13:23:10.307Z,16.35
2019-05-14T13:28:09.317Z,15.83
2019-05-14T13:33:09.141Z,15.75
2019-05-14T13:38:13.844Z,14.95
2019-05-14T13:43:10.124Z,15.6
2019-05-14T13:48:08.890Z,14.79
2019-05-14T13:52:10.105Z,16.55
2019-05-14T13:57:12.634Z,15.26
2019-05-14T14:02:10.219Z,13.97
2019-05-14T14:07:09.409Z,13.46
2019-05-14T14:12:08.631Z,13.33
2019-05-14T14:16:13.627Z,13.3
2019-05-14T14:22:10.574Z,15.63
2019-05-14T14:26:09.805Z,14.47
2019-05-14T14:31:11.203Z,13.06
2019-05-14T14:36:06.440Z,13.35
2019-05-14T14:41:10.468Z,14.05
2019-05-14T14:46:14.541Z,16.19
2019-05-14T14:51:08.890Z,15.38
2019-05-14T14:56:10.028Z,16.2
2019-05-14T15:00:11.444Z,16.54
2019-05-14T15:05:14.590Z,14.97
2019-05-14T15:10:08.995Z,15.45
2019-05-14T15:15:08.833Z,15.99
2019-05-14T15:20:10.882Z,16.36
2019-05-14T15:25:09.591Z,15.91
2019-05-14T15:29:10.575Z,16.41
2019-05-14T15:34:09.390Z,15.51
2019-05-14T15:39:09.936Z,13.18
2019-05-14T15:44:09.449Z,13.11
2019-05-14T15:49:09.493Z,14.42
2019-05-14T15:54:42.003Z,16.33
2019-05-14T15:59:09.204Z,13.99
2019-05-14T16:03:09.250Z,15.36
2019-05-14T16:04:11.968Z,15.36
2019-05-14T16:08:06.966Z,15.63
2019-05-14T16:13:09.244Z,16.37
2019-05-14T16:18:18.729Z,17.49
2019-05-14T16:23:11.194Z,16.89
2019-05-14T16:28:09.010Z,14.24
2019-05-14T16:33:09.125Z,13.56
2019-05-14T16:37:11.432Z,13.7
2019-05-14T16:42:07.046Z,15.55
2019-05-14T16:47:06.932Z,16.82
2019-05-14T16:52:09.384Z,15.78
2019-05-14T16:57:11.347Z,13.34
2019-05-14T17:02:08.922Z,12.6
2019-05-14T17:06:06.573Z,12.32
2019-05-14T17:07:09.239Z,12.32
2019-05-14T17:11:08.664Z,11.93
2019-05-14T17:16:09.065Z,11.84
2019-05-14T17:21:09.504Z,13.68
2019-05-14T17:26:09.189Z,15.07
2019-05-14T17:31:06.304Z,13.98
2019-05-14T17:36:08.839Z,12.16
2019-05-14T17:40:10.070Z,11.57
2019-05-14T17:45:08.935Z,11.39
2019-05-14T17:50:07.346Z,11.42
2019-05-14T17:55:12.992Z,12.15
2019-05-14T18:00:09.925Z,12.03
2019-05-14T18:05:09.848Z,12.3
2019-05-14T18:09:09.875Z,11.68
2019-05-14T18:14:12.551Z,11
2019-05-14T18:19:09.449Z,11.1
2019-05-14T18:24:06.859Z,11.04
2019-05-14T18:29:09.464Z,10.9
2019-05-14T18:34:07.266Z,10.65
2019-05-14T18:38:08.550Z,10
2019-05-14T18:43:09.002Z,9.61
2019-05-14T18:48:09.087Z,9.46
2019-05-14T18:53:13.409Z,9.27
2019-05-14T18:58:09.102Z,9.11
2019-05-14T19:03:08.857Z,8.97
2019-05-14T19:08:07.075Z,8.88
2019-05-14T19:12:08.722Z,8.72
2019-05-14T19:13:09.494Z,8.72
2019-05-14T19:17:09.873Z,8.56
2019-05-14T19:22:06.824Z,8.56
2019-05-14T19:27:09.534Z,8.33
2019-05-14T19:32:08.964Z,8.24
2019-05-14T19:37:08.737Z,8.15
2019-05-14T19:42:08.839Z,8.13
2019-05-14T19:46:09.027Z,7.93
2019-05-14T19:51:08.867Z,7.78
2019-05-14T19:56:07.103Z,7.81
2019-05-14T20:01:08.831Z,7.69
2019-05-14T20:06:09.292Z,7.41
2019-05-14T20:11:06.967Z,7.32
2019-05-14T20:15:09.930Z,7.23
2019-05-14T20:16:09.007Z,7.23
2019-05-14T20:20:09.401Z,7.15
2019-05-14T20:25:06.676Z,7.12
2019-05-14T20:30:09.128Z,7.02
2019-05-14T20:35:09.316Z,6.78
2019-05-14T20:40:06.415Z,6.6
2019-05-14T20:45:08.278Z,6.52
2019-05-14T20:49:09.586Z,6.44
2019-05-14T20:50:08.706Z,6.44
2019-05-14T20:54:09.237Z,6.38
2019-05-14T20:59:09.030Z,6.25
2019-05-14T21:04:09.270Z,6.25
2019-05-14T21:09:06.659Z,6.14
2019-05-14T21:14:09.223Z,5.82
2019-05-14T21:19:08.829Z,5.7
2019-05-14T21:24:09.111Z,5.64
2019-05-14T21:29:08.328Z,5.65
2019-05-14T21:33:09.177Z,5.48
2019-05-14T21:38:09.736Z,5.26
2019-05-14T21:43:11.843Z,5.02
2019-05-14T21:48:09.252Z,5.02
2019-05-14T21:53:09.171Z,4.96
2019-05-14T21:58:12.230Z,4.87
2019-05-14T22:03:06.294Z,4.94
2019-05-14T22:07:08.949Z,4.87
2019-05-14T22:12:06.577Z,4.82
2019-05-14T22:17:08.399Z,4.76
2019-05-14T22:22:08.417Z,4.74
2019-05-14T22:27:09.184Z,4.76
2019-05-14T22:32:08.510Z,4.76
2019-05-14T22:36:08.628Z,4.78
2019-05-14T22:37:07.079Z,4.78
2019-05-14T22:41:11.484Z,4.65
2019-05-14T22:46:08.771Z,4.44
2019-05-14T22:51:09.081Z,4.29
2019-05-14T22:56:08.723Z,4.19
2019-05-14T23:01:15.340Z,4.09
2019-05-14T23:06:06.239Z,4.1
2019-05-14T23:11:08.491Z,4
2019-05-14T23:15:08.790Z,3.93
2019-05-14T23:16:08.610Z,3.93
2019-05-14T23:20:09.381Z,3.86
2019-05-14T23:25:09.288Z,3.74
2019-05-14T23:30:07.956Z,3.7
2019-05-14T23:35:06.772Z,3.76
2019-05-14T23:40:08.855Z,3.61
2019-05-14T23:45:08.698Z,3.53
2019-05-14T23:49:09.194Z,3.34
2019-05-14T23:54:09.504Z,3.43
2019-05-14T23:59:09.579Z,3.4
